x

Delaware Bay 26 Nm Southeast Of Cape May, Nj (44009) Wave Buoy

10:50pm - Fri 23rd Feb 2018 All times are EST. -5 hours from GMT.

  • Sig Wave height 4.3ft
  • Swell Direction
  • Peak Period 8s
  • Average Period 6s
  • Wind
    9mph, 11mph gusts
  • Sea Temp 43°f
  • Air Temp 43°f
  • Sea Pressure 1025.7mb
  • Delaware Bay 26 Nm Southeast Of Cape May, Nj
  • Delaware Bay 26 Nm Southeast Of Cape May, Nj

More Historic Weather Station data

Upgrade to MSW Pro to gain access to the past 30 days of data for over 8000 Wavebouys and Weather Stations around the globe.

Join

Comparision Forecast

View Surf forecast
   
Fri 02/23 10:50pm 4.5ft 8s 6s 9 11 mph 1025.7mb 43f 43f
9:50pm 4.5ft 7s 6s 4 4 mph 1026.6mb 43f 42f
8:50pm 4.5ft 7s 6s 4 4 mph 1026.9mb 43f 42f
7:50pm 4.5ft 7s 6s 9 9 mph 1027.4mb 43f 42f
6:50pm 5ft 8s 6s 4 7 mph 1027.4mb 43f 42f
5:50pm 5ft 8s 6s 4 4 mph 1027.6mb 43f 43f
4:50pm 5ft 7s 6s 2 4 mph 1028mb 43f 43f
3:50pm 5.5ft 8s 6s 7 9 mph 1029mb 43f 43f
2:50pm 6ft 8s 6s 9 11 mph 1029.8mb 43f 44f
1:50pm 6ft 8s 6s 7 9 mph 1030.1mb 43f 44f
12:50pm 6ft 8s 6s 9 11 mph 1031mb 43f 44f
11:50am 6ft 8s 6s 13 16 mph 1032.5mb 43f 44f
10:50am 6.5ft 8s 6s 13 16 mph 1033.6mb 43f 44f
9:50am 6.5ft 8s 6s 11 11 mph 1034.2mb 43f 44f
8:50am 7ft 8s 6s 11 13 mph 1034.5mb 43f 44f
7:50am 7ft 8s 6s 18 22 mph 1034.2mb 43f 44f
6:50am 7ft 8s 6s 20 25 mph 1033.9mb 43f 44f
5:50am 7.5ft 8s 6s 20 25 mph 1034.3mb 43f 44f
4:50am 7ft 8s  -  20 22 mph 1034.5mb 43f 44f
3:50am 8.5ft 8s 6s 20 25 mph 1034mb 43f 43f
2:50am 8.5ft 8s 6s 22 29 mph 1034.2mb 43f 44f
1:50am 8.5ft 8s 6s 22 27 mph 1034.6mb 43f 44f
12:50am 8.5ft 8s 6s 22 25 mph 1034.9mb 43f 44f
Thu 02/22 11:50pm 8.5ft 7s 6s 22 27 mph 1034.7mb 43f 43f
10:50pm 9ft 8s 6s 22 27 mph 1034.6mb 43f 43f
9:50pm 9ft 8s 6s 25 34 mph 1033.8mb 43f 43f
8:50pm 9ft 7s 6s 29 38 mph 1033.5mb 43f 42f
7:50pm 7ft 6s 5s 31 38 mph 1033.5mb 43f 42f
6:50pm 5.5ft 5s 4s 34 43 mph 1033.2mb 43f 42f
5:50pm 4.5ft 6s 5s 25 31 mph 1032.3mb 43f 43f
4:50pm 4.5ft 5s 5s 20 22 mph 1031.2mb 43f 44f
3:50pm 4ft 5s 5s 16 18 mph 1030.7mb 43f 44f
2:50pm 3.5ft 5s 5s 16 20 mph 1030.2mb 43f 45f
1:50pm 4ft 5s 5s 16 20 mph 1030.6mb 43f 45f
12:50pm 3.5ft 5s 4s 16 20 mph 1031.1mb 43f 45f
11:50am 3.5ft 4s 4s 18 20 mph 1031.6mb 42f 46f
10:50am 3ft 13s 4s 11 13 mph 1032.5mb 42f 45f
9:50am 3ft 13s 4s 16 18 mph 1032.1mb 42f 46f
8:50am 3ft 13s 4s 18 20 mph 1031.9mb 42f 47f
7:50am 2.5ft 14s 5s 18 22 mph 1031.9mb 42f 48f
6:50am 2.5ft 14s 6s 13 16 mph 1031.5mb 42f 46f
5:50am 2.5ft 14s 6s 9 11 mph 1030.9mb 42f 46f
4:50am 2.5ft 6s 5s 2 4 mph 1030.5mb 42f 45f
3:50am 2.5ft 15s 5s 4 7 mph 1030.1mb 42f 46f
2:50am 2.5ft 14s 5s 11 11 mph 1029.7mb 42f 46f
1:50am 2.5ft 12s 5s 11 11 mph 1029.7mb 42f 46f
12:50am 2.5ft 14s 5s 13 16 mph 1029.3mb 42f 47f
Wed 02/21 11:50pm 2.5ft 13s 5s 13 16 mph 1029.2mb 42f 47f
10:50pm 3ft 14s 5s 16 22 mph 1028.8mb 42f 48f
9:50pm 2.5ft 14s 5s 16 18 mph 1028.5mb 42f 47f
8:50pm 3ft 13s 5s 13 16 mph 1028.5mb 42f 48f
7:50pm 3ft 13s 5s 16 18 mph 1028.1mb 42f 48f
6:50pm 3ft 5s 5s 16 18 mph 1027.9mb 42f 49f
5:50pm 3ft 14s 5s 16 18 mph 1027.6mb 42f 49f
4:50pm 3ft 14s 5s 16 18 mph 1027.5mb 42f 49f
3:50pm 3ft 14s 4s 18 20 mph 1027.3mb 42f 48f
2:50pm 3ft 14s 5s 18 20 mph 1027.3mb 42f 49f
1:50pm 3ft 4s 4s 18 18 mph 1027.5mb 42f 48f
12:50pm 3.5ft 14s 5s 16 18 mph 1028.5mb 42f 48f
11:50am 3.5ft 12s 4s 18 20 mph 1029.5mb 42f 47f
10:50am 3.5ft 5s 4s 16 18 mph 1029.8mb 41f 47f
9:50am 3.5ft 12s 4s 18 20 mph 1030mb 41f 47f
8:50am 3.5ft 5s 5s 16 16 mph 1030.2mb 41f 46f
7:50am 3.5ft 5s 4s 18 20 mph 1030.1mb 41f 47f
6:50am 3.5ft 11s 5s 18 20 mph 1029.6mb 41f 46f
5:50am 3.5ft 5s 5s 16 18 mph 1029.4mb 41f 47f
4:50am 3.5ft 11s 5s 16 16 mph 1029.5mb 42f 46f
3:50am 3.5ft 10s 5s 16 16 mph 1029.6mb 42f 46f
2:50am 3ft 11s 5s 13 16 mph 1029.8mb 42f 46f
1:50am 3ft 12s 5s 13 16 mph 1030mb 42f 45f
12:50am 2.5ft 11s 6s 13 13 mph 1030.2mb 42f 45f
Tue 02/20 11:50pm 3ft 12s 6s 11 13 mph 1030.2mb 42f 45f
10:50pm 2.5ft 12s 5s 11 11 mph 1030.2mb 42f 45f
9:50pm 3ft 12s 5s 13 16 mph 1030.3mb 42f 47f
8:50pm 3.5ft 11s 5s 13 16 mph 1030.3mb 42f 47f
7:50pm 3.5ft 11s 5s 16 20 mph 1029.8mb 42f 46f
6:50pm 3ft 11s 5s 16 18 mph 1029.7mb 42f 47f
5:50pm 3.5ft 6s 5s 16 18 mph 1029.3mb 42f 49f
4:50pm 3ft 11s 5s 16 18 mph 1029.1mb 42f 48f
3:50pm 3.5ft 6s 5s 13 16 mph 1029.1mb 43f 46f
2:50pm 3ft 10s 5s 16 18 mph 1028.9mb 43f 47f
1:50pm 3.5ft 11s 6s 16 18 mph 1029.2mb 43f 47f
12:50pm 3.5ft 6s 6s 13 13 mph 1030mb 43f 47f
11:50am 3.5ft 11s 6s 11 13 mph 1030.8mb 43f 47f
10:50am 3.5ft 11s 6s 13 16 mph 1031.1mb 43f 47f
9:50am 3.5ft 11s 6s 13 13 mph 1031.1mb 42f 46f
8:50am 3.5ft 11s 6s 11 13 mph 1031mb 42f 46f
7:50am 3.5ft 11s 6s 13 16 mph 1030.5mb 42f 46f
6:50am 3.5ft 11s 6s 11 13 mph 1029.9mb 42f 46f